Time;durP1;ratioP1;P1;durP2;ratioP2;P2;SDS_P1;SDS_P2;PMS_P1;PMS_P2;Temp;Humidity;BMP_temperature;BMP_pressure;BME280_temperature;BME280_humidity;BME280_pressure;Samples;Min_cycle;Max_cycle;Signal;HPM_P1;HPM_P2
2023/07/09 00:01:17;;;;;;;3.60;2.00;;;;;;;14.26;76.71;99076.94;105879;1257;61121;-22
2023/07/09 00:03:45;;;;;;;2.90;2.40;;;;;;;14.07;77.86;99076.52;105774;1256;61188;-22
2023/07/09 00:06:12;;;;;;;3.90;1.50;;;;;;;13.90;78.69;99078.48;105348;1254;73718;-23
2023/07/09 00:08:43;;;;;;;3.80;1.50;;;;;;;14.30;77.71;99079.02;105679;1257;74892;-22
2023/07/09 00:11:10;;;;;;;3.20;1.80;;;;;;;14.61;76.25;99075.91;105627;1254;72670;-23
2023/07/09 00:13:38;;;;;;;3.00;2.00;;;;;;;14.52;75.82;99076.72;105751;1255;61058;-23
2023/07/09 00:16:14;;;;;;;4.40;1.80;;;;;;;14.32;76.80;99082.70;105896;1256;61170;-23
2023/07/09 00:18:42;;;;;;;3.30;1.90;;;;;;;14.07;77.78;99088.94;105511;1254;73863;-23
2023/07/09 00:21:09;;;;;;;8.10;2.70;;;;;;;13.84;78.49;99090.09;105611;1256;74328;-23
2023/07/09 00:23:41;;;;;;;3.50;1.30;;;;;;;13.67;79.78;99082.76;105707;1255;72681;-23
2023/07/09 00:26:10;;;;;;;1.70;1.50;;;;;;;14.05;78.80;99084.56;105615;1257;61196;-23
2023/07/09 00:28:37;;;;;;;3.70;2.10;;;;;;;14.40;76.97;99082.93;105642;1260;61163;-23
2023/07/09 00:31:04;;;;;;;2.50;1.90;;;;;;;14.31;76.75;99082.39;105865;1256;73551;-23
2023/07/09 00:33:32;;;;;;;2.50;2.30;;;;;;;14.13;77.09;99083.23;105664;1257;74479;-23
2023/07/09 00:35:59;;;;;;;3.90;2.40;;;;;;;13.91;78.21;99084.54;105609;1257;72673;-23
2023/07/09 00:38:28;;;;;;;3.50;2.50;;;;;;;13.67;79.28;99082.79;105699;1257;61060;-23
2023/07/09 00:41:00;;;;;;;4.10;2.30;;;;;;;13.49;80.23;99084.71;105799;1256;61111;-22
2023/07/09 00:43:35;;;;;;;5.80;1.80;;;;;;;13.86;79.29;99079.52;105700;1254;73804;-22
2023/07/09 00:46:22;;;;;;;2.70;1.90;;;;;;;14.15;77.79;99076.98;105938;1255;74395;-22
2023/07/09 00:48:58;;;;;;;3.30;1.90;;;;;;;14.10;77.54;99078.86;105886;1251;72592;-22
2023/07/09 00:53:08;;;;;;;4.20;2.00;;;;;;;13.77;78.98;99084.58;102664;1293;600400;-23
2023/07/09 00:55:38;;;;;;;4.60;2.40;;;;;;;13.51;79.86;99081.92;104832;1273;61213;-21
2023/07/09 00:58:07;;;;;;;3.00;1.40;;;;;;;13.40;80.30;99087.77;104763;1270;61272;-22
2023/07/09 01:00:46;;;;;;;3.50;1.70;;;;;;;13.86;79.43;99088.30;104814;1267;72270;-23
2023/07/09 01:03:42;;;;;;;3.00;2.30;;;;;;;14.29;76.91;99083.55;104864;1267;74478;-23
2023/07/09 01:06:09;;;;;;;2.80;2.20;;;;;;;14.32;76.32;99083.21;102854;1270;2682604;-21
2023/07/09 01:08:41;;;;;;;3.50;2.30;;;;;;;14.15;76.17;99085.17;105077;1269;61087;-21
2023/07/09 01:11:21;;;;;;;4.40;2.20;;;;;;;13.89;77.51;99092.53;104910;1269;61121;-21
2023/07/09 01:13:58;;;;;;;5.60;2.20;;;;;;;13.69;78.37;99088.39;105101;1270;72325;-21
2023/07/09 01:16:27;;;;;;;4.20;2.00;;;;;;;13.57;79.03;99090.99;105175;1264;73189;-21
2023/07/09 01:18:55;;;;;;;3.70;1.80;;;;;;;14.02;78.09;99090.43;105153;1267;72667;-21
2023/07/09 01:21:23;;;;;;;3.00;2.40;;;;;;;14.25;76.70;99088.77;105138;1268;61209;-21
2023/07/09 01:23:52;;;;;;;3.60;2.30;;;;;;;14.06;77.35;99090.25;105128;1264;61058;-21
2023/07/09 01:26:24;;;;;;;3.10;2.30;;;;;;;13.87;78.02;99099.84;104876;1270;73142;-21
2023/07/09 01:28:53;;;;;;;3.40;2.30;;;;;;;13.64;78.65;99098.35;104950;1269;73446;-21
2023/07/09 01:31:22;;;;;;;3.90;2.60;;;;;;;13.42;79.74;99099.34;105135;1265;72692;-21
2023/07/09 01:33:50;;;;;;;7.10;1.50;;;;;;;13.23;80.89;99099.96;104963;1272;61192;-21
2023/07/09 01:36:23;;;;;;;2.60;1.90;;;;;;;13.66;80.17;99096.95;105154;1264;61081;-21
2023/07/09 01:38:53;;;;;;;2.80;2.20;;;;;;;14.08;78.01;99094.95;104878;1270;71880;-21
2023/07/09 01:41:22;;;;;;;3.70;2.50;;;;;;;13.97;77.67;99093.16;104847;1270;73257;-21
2023/07/09 01:43:51;;;;;;;4.70;2.50;;;;;;;13.76;78.11;99095.63;104887;1272;70766;-21
2023/07/09 01:46:19;;;;;;;4.20;2.80;;;;;;;13.50;79.29;99098.95;104742;1267;61092;-21
2023/07/09 01:48:49;;;;;;;6.00;2.90;;;;;;;13.31;79.80;99094.55;104884;1267;61132;-21
2023/07/09 01:51:17;;;;;;;3.50;1.90;;;;;;;13.16;80.69;99095.77;104828;1272;71891;-21
2023/07/09 01:53:45;;;;;;;3.10;1.80;;;;;;;13.62;79.72;99090.66;105118;1269;74494;-21
2023/07/09 01:56:13;;;;;;;3.50;2.50;;;;;;;14.07;77.22;99085.08;105137;1266;72741;-21
2023/07/09 01:58:41;;;;;;;5.70;2.60;;;;;;;14.05;76.58;99083.14;105106;1269;61194;-21
2023/07/09 02:01:11;;;;;;;5.00;2.80;;;;;;;13.89;77.34;99087.64;104932;1270;61078;-21
2023/07/09 02:03:39;;;;;;;6.90;3.20;;;;;;;13.63;78.38;99088.33;105117;1273;73049;-23
2023/07/09 02:06:10;;;;;;;7.50;3.20;;;;;;;13.37;79.55;99090.51;104842;1273;73496;-23
2023/07/09 02:08:38;;;;;;;2.30;1.90;;;;;;;13.17;80.62;99092.84;104726;1267;72709;-23
2023/07/09 02:11:06;;;;;;;4.60;2.60;;;;;;;13.56;79.57;99089.11;104649;1273;61190;-21
2023/07/09 02:13:34;;;;;;;4.90;2.80;;;;;;;13.94;77.55;99094.68;104966;1264;61331;-21
2023/07/09 02:16:02;;;;;;;7.70;2.90;;;;;;;13.89;76.96;99088.91;104816;1270;71876;-21
2023/07/09 02:18:30;;;;;;;5.10;2.70;;;;;;;13.77;77.41;99088.77;104940;1269;73485;-21
2023/07/09 02:21:00;;;;;;;3.80;2.50;;;;;;;13.57;77.98;99093.75;104866;1270;70456;-21
2023/07/09 02:23:28;;;;;;;3.60;2.80;;;;;;;13.47;78.35;99095.20;104791;1268;61177;-21
2023/07/09 02:25:58;;;;;;;4.80;1.90;;;;;;;13.40;78.62;99101.08;104949;1267;61121;-21
2023/07/09 02:28:26;;;;;;;3.20;1.90;;;;;;;13.89;77.48;99100.36;104777;1270;71843;-21
2023/07/09 02:30:53;;;;;;;4.30;2.40;;;;;;;14.41;75.08;99099.61;104766;1270;74220;-21
2023/07/09 02:33:23;;;;;;;3.20;2.10;;;;;;;14.53;73.74;99104.21;105022;1269;72713;-21
2023/07/09 02:35:51;;;;;;;3.50;2.50;;;;;;;14.46;73.83;99103.68;104759;1271;61206;-21
2023/07/09 02:38:20;;;;;;;4.20;2.60;;;;;;;14.24;74.52;99100.22;104832;1270;61233;-21
2023/07/09 02:40:47;;;;;;;3.90;2.80;;;;;;;14.05;75.38;99100.61;104759;1272;71880;-21
2023/07/09 02:43:15;;;;;;;2.90;2.60;;;;;;;14.01;75.84;99102.23;104805;1271;73549;-21
2023/07/09 02:45:43;;;;;;;2.60;1.70;;;;;;;14.09;75.47;99100.62;104813;1272;72735;-22
2023/07/09 02:48:11;;;;;;;7.20;2.30;;;;;;;14.69;73.77;99098.52;104974;1269;61138;-22
2023/07/09 02:50:39;;;;;;;3.40;2.10;;;;;;;15.40;70.98;99092.80;104852;1264;61931;-23
2023/07/09 02:53:07;;;;;;;3.10;2.30;;;;;;;15.58;69.70;99090.92;104795;1272;73125;-22
2023/07/09 02:55:35;;;;;;;2.90;2.30;;;;;;;15.55;69.44;99092.48;105020;1269;74883;-22
2023/07/09 02:58:03;;;;;;;3.70;2.30;;;;;;;15.34;69.99;99091.48;104768;1273;73214;-22
2023/07/09 03:00:30;;;;;;;5.10;2.90;;;;;;;15.22;70.41;99090.72;104899;1268;61080;-22
2023/07/09 03:02:58;;;;;;;2.80;2.30;;;;;;;15.06;70.78;99095.79;104716;1273;61180;-22
2023/07/09 03:05:26;;;;;;;4.20;2.90;;;;;;;15.02;71.34;99090.05;104807;1272;73124;-22
2023/07/09 03:07:54;;;;;;;3.30;1.50;;;;;;;15.10;71.56;99093.55;105132;1269;73477;-22
2023/07/09 03:10:22;;;;;;;4.10;2.10;;;;;;;15.67;70.18;99092.02;105145;1269;72752;-22
2023/07/09 03:12:50;;;;;;;5.10;2.50;;;;;;;16.24;67.85;99087.75;104780;1270;61068;-22
2023/07/09 03:15:17;;;;;;;6.90;4.20;;;;;;;16.32;66.99;99089.86;104978;1269;61251;-22
2023/07/09 03:17:45;;;;;;;2.90;2.20;;;;;;;16.20;66.70;99092.42;105140;1267;71005;-22
2023/07/09 03:20:13;;;;;;;4.60;2.20;;;;;;;16.02;67.37;99092.31;105263;1266;74482;-22
2023/07/09 03:22:41;;;;;;;4.30;2.60;;;;;;;15.81;68.17;99088.15;105197;1267;72705;-22
2023/07/09 03:25:09;;;;;;;4.10;2.60;;;;;;;15.73;68.91;99090.73;105056;1267;61193;-22
2023/07/09 03:27:36;;;;;;;3.20;2.50;;;;;;;15.65;68.79;99091.30;105128;1266;61142;-22
2023/07/09 03:30:05;;;;;;;5.50;2.50;;;;;;;15.59;68.98;99089.71;105072;1267;73078;-22
2023/07/09 03:32:33;;;;;;;4.40;2.60;;;;;;;15.45;69.78;99088.79;105053;1266;74439;-22
2023/07/09 03:35:00;;;;;;;3.40;1.90;;;;;;;15.27;70.90;99090.92;105033;1261;72703;-22
2023/07/09 03:37:29;;;;;;;3.50;1.90;;;;;;;15.84;69.84;99089.01;105158;1267;61635;-22
2023/07/09 03:39:56;;;;;;;5.20;2.20;;;;;;;16.56;67.29;99089.83;105134;1264;61292;-22
2023/07/09 03:42:25;;;;;;;3.10;2.30;;;;;;;16.63;65.65;99085.92;105200;1266;73092;-22
2023/07/09 03:44:53;;;;;;;3.20;2.40;;;;;;;16.74;66.05;99092.48;105225;1266;74443;-23
2023/07/09 03:47:20;;;;;;;6.10;2.30;;;;;;;16.68;65.86;99090.83;105202;1264;72709;-22
2023/07/09 03:49:48;;;;;;;3.80;2.20;;;;;;;16.63;66.10;99090.70;105123;1263;61103;-22
2023/07/09 03:52:17;;;;;;;3.00;2.50;;;;;;;16.65;65.81;99087.50;105131;1267;61240;-22
2023/07/09 03:54:45;;;;;;;4.50;2.50;;;;;;;16.66;66.07;99091.30;105216;1266;72121;-22
2023/07/09 03:57:12;;;;;;;4.20;2.00;;;;;;;16.69;65.91;99089.04;105187;1264;73401;-22
2023/07/09 03:59:40;;;;;;;4.30;3.00;;;;;;;16.66;66.31;99091.94;105119;1266;72718;-22
2023/07/09 04:02:08;;;;;;;5.60;2.60;;;;;;;16.58;66.39;99088.64;105055;1276;61192;-22
2023/07/09 04:04:36;;;;;;;5.40;2.40;;;;;;;16.65;65.79;99092.44;105057;1268;61199;-22
2023/07/09 04:14:43;;;;;;;2.90;2.10;;;;;;;17.48;64.51;99097.28;102690;1296;600276;-21
2023/07/09 04:17:10;;;;;;;3.20;2.00;;;;;;;17.74;63.62;99096.83;105046;1267;61304;-22
2023/07/09 04:19:38;;;;;;;6.10;2.30;;;;;;;17.97;64.00;99096.97;104849;1267;61058;-22
2023/07/09 04:22:06;;;;;;;3.70;2.40;;;;;;;18.19;62.83;99092.73;104881;1269;72360;-22
2023/07/09 04:24:34;;;;;;;3.80;2.10;;;;;;;18.34;61.68;99094.05;104881;1267;73267;-22
2023/07/09 04:27:02;;;;;;;3.30;2.10;;;;;;;18.40;60.98;99094.80;104848;1268;72730;-22
2023/07/09 04:29:30;;;;;;;4.30;2.40;;;;;;;18.60;60.91;99093.45;103421;1264;61148;-22
2023/07/09 04:31:58;;;;;;;4.50;2.20;;;;;;;18.67;60.46;99095.28;105207;1269;61160;-22
2023/07/09 04:34:26;;;;;;;3.00;2.00;;;;;;;18.80;60.44;99096.83;105207;1263;72313;-22
2023/07/09 04:36:54;;;;;;;3.90;2.40;;;;;;;18.95;59.91;99099.16;105174;1264;74371;-23
2023/07/09 04:39:21;;;;;;;4.20;2.60;;;;;;;18.97;58.77;99097.71;104949;1269;70971;-23
2023/07/09 04:41:49;;;;;;;6.40;2.10;;;;;;;19.02;59.05;99099.11;105230;1264;61170;-22
2023/07/09 04:44:17;;;;;;;4.00;2.00;;;;;;;19.16;59.39;99100.97;105134;1270;61246;-22
2023/07/09 04:46:45;;;;;;;9.60;2.40;;;;;;;19.08;58.11;99096.02;104870;1264;73118;-22
2023/07/09 04:49:12;;;;;;;5.30;2.40;;;;;;;19.08;58.40;99102.09;105121;1271;72972;-22
2023/07/09 04:51:40;;;;;;;2.90;2.00;;;;;;;18.99;58.84;99101.66;104843;1267;72749;-22
2023/07/09 04:54:08;;;;;;;3.10;2.00;;;;;;;19.13;59.04;99103.09;104953;1264;60997;-22
2023/07/09 04:56:37;;;;;;;2.10;1.90;;;;;;;19.37;58.75;99106.59;104741;1264;61061;-23
2023/07/09 04:59:05;;;;;;;2.70;2.00;;;;;;;19.61;58.50;99103.83;104935;1269;71800;-22
2023/07/09 05:01:33;;;;;;;4.30;2.00;;;;;;;19.79;57.87;99103.75;105106;1264;74413;-22
2023/07/09 05:04:00;;;;;;;3.40;1.90;;;;;;;19.94;56.69;99101.99;104788;1268;72682;-23
2023/07/09 05:06:28;;;;;;;3.30;2.00;;;;;;;20.01;56.68;99106.45;104870;1264;61187;-23
2023/07/09 05:08:56;;;;;;;3.20;2.00;;;;;;;20.02;56.08;99101.61;104942;1269;61656;-23
2023/07/09 05:11:24;;;;;;;5.10;2.20;;;;;;;20.15;57.20;99102.85;104768;1269;73057;-23
2023/07/09 05:13:51;;;;;;;3.00;2.10;;;;;;;20.26;55.65;99102.41;104977;1264;74373;-23
2023/07/09 05:16:20;;;;;;;3.50;1.90;;;;;;;20.16;55.63;99101.64;105045;1268;72739;-23
2023/07/09 05:18:48;;;;;;;4.00;2.20;;;;;;;20.17;55.94;99098.16;104917;1267;61058;-23
2023/07/09 05:21:16;;;;;;;2.00;1.60;;;;;;;20.23;55.74;99098.76;104831;1270;61100;-23
2023/07/09 05:23:44;;;;;;;4.50;1.90;;;;;;;20.24;55.54;99098.07;104811;1264;73115;-23
2023/07/09 05:26:11;;;;;;;2.70;1.70;;;;;;;20.32;55.63;99101.36;104885;1269;74472;-23
2023/07/09 05:28:39;;;;;;;1.90;1.60;;;;;;;20.43;55.15;99097.40;104882;1267;72714;-22
2023/07/09 05:31:07;;;;;;;4.80;2.10;;;;;;;20.43;54.38;99099.16;105107;1266;61684;-23
2023/07/09 05:33:35;;;;;;;3.40;1.70;;;;;;;20.45;55.01;99099.46;104916;1269;61109;-22
2023/07/09 05:36:03;;;;;;;3.10;1.80;;;;;;;20.57;54.04;99095.88;105074;1269;73069;-22
2023/07/09 05:38:31;;;;;;;2.70;2.00;;;;;;;20.72;53.87;99095.65;104887;1272;74437;-22
2023/07/09 05:41:01;;;;;;;4.20;1.80;;;;;;;20.84;53.58;99097.40;105112;1267;72770;-23
2023/07/09 05:43:29;;;;;;;2.20;1.50;;;;;;;21.00;53.52;99099.32;104855;1273;61240;-22
2023/07/09 05:45:57;;;;;;;2.40;1.60;;;;;;;21.14;53.55;99100.29;104801;1264;61095;-23
2023/07/09 05:48:25;;;;;;;5.30;1.90;;;;;;;21.29;53.00;99094.23;105106;1264;73148;-22
2023/07/09 05:50:54;;;;;;;4.10;1.70;;;;;;;21.47;52.91;99098.13;105512;1257;74357;-22
2023/07/09 05:53:22;;;;;;;5.40;2.20;;;;;;;21.29;52.16;99097.80;105220;1260;72732;-22
2023/07/09 05:55:56;;;;;;;2.70;1.50;;;;;;;21.29;51.76;99099.36;105213;1257;61097;-22
2023/07/09 05:58:24;;;;;;;3.00;1.70;;;;;;;21.07;51.55;99096.84;105227;1257;61196;-23
2023/07/09 06:00:57;;;;;;;3.00;1.70;;;;;;;20.82;52.52;99096.48;105405;1258;73117;-22
2023/07/09 06:03:26;;;;;;;2.60;1.70;;;;;;;20.85;52.46;99094.73;105117;1265;74588;-23
2023/07/09 06:05:57;;;;;;;3.60;1.70;;;;;;;20.87;52.50;99096.16;105259;1264;72713;-23
2023/07/09 06:08:26;;;;;;;1.90;1.30;;;;;;;21.01;53.50;99101.77;105201;1258;61512;-22
2023/07/09 06:10:57;;;;;;;3.90;1.90;;;;;;;21.19;53.02;99101.09;105589;1258;61475;-23
2023/07/09 06:13:24;;;;;;;6.00;2.30;;;;;;;21.38;53.58;99094.94;105359;1263;71844;-23
2023/07/09 06:15:53;;;;;;;4.40;1.70;;;;;;;21.35;52.79;99097.88;105274;1263;74423;-22
2023/07/09 06:18:21;;;;;;;3.40;2.00;;;;;;;21.17;52.16;99094.03;105138;1260;72709;-22
2023/07/09 06:20:54;;;;;;;4.20;1.80;;;;;;;21.08;53.20;99095.77;105330;1259;61071;-22
2023/07/09 06:23:22;;;;;;;4.00;1.90;;;;;;;21.18;52.87;99099.33;105318;1265;61113;-23
2023/07/09 06:25:50;;;;;;;2.90;1.80;;;;;;;21.36;52.69;99101.48;105300;1264;71764;-22
2023/07/09 06:28:20;;;;;;;2.70;1.60;;;;;;;21.54;53.39;99104.92;105399;1263;74479;-22
2023/07/09 06:30:48;;;;;;;4.60;1.50;;;;;;;21.67;53.16;99104.64;105293;1257;71729;-22
2023/07/09 06:33:18;;;;;;;4.10;1.80;;;;;;;21.68;52.18;99096.01;105532;1258;61176;-22
2023/07/09 06:35:49;;;;;;;2.80;1.70;;;;;;;21.62;53.36;99094.73;105304;1257;61051;-23
2023/07/09 06:38:17;;;;;;;2.80;1.70;;;;;;;21.61;53.05;99092.92;105266;1257;72355;-23
2023/07/09 06:40:46;;;;;;;3.70;1.60;;;;;;;21.81;53.61;99093.23;105573;1257;74457;-23
2023/07/09 06:43:13;;;;;;;5.40;2.10;;;;;;;22.04;52.02;99096.67;105595;1263;71696;-22
2023/07/09 06:45:56;;;;;;;3.70;1.60;;;;;;;22.18;51.41;99090.23;105575;1257;61170;-23
2023/07/09 06:48:25;;;;;;;4.10;1.70;;;;;;;22.26;51.23;99089.33;105513;1257;61186;-22
2023/07/09 06:50:53;;;;;;;2.00;1.70;;;;;;;22.18;51.56;99088.98;105253;1257;73063;-23
2023/07/09 06:53:22;;;;;;;9.20;1.70;;;;;;;22.24;51.50;99088.95;105286;1266;74553;-23
2023/07/09 06:55:50;;;;;;;3.60;1.80;;;;;;;22.13;51.07;99083.63;105538;1259;72761;-23
2023/07/09 06:58:18;;;;;;;2.10;1.50;;;;;;;22.04;50.95;99086.02;105444;1257;61189;-23
2023/07/09 07:00:48;;;;;;;7.90;1.50;;;;;;;22.03;50.93;99088.05;105601;1263;61166;-22
2023/07/09 07:03:16;;;;;;;3.40;1.50;;;;;;;22.07;50.07;99091.08;105109;1265;73400;-23
2023/07/09 07:05:53;;;;;;;5.10;1.70;;;;;;;22.14;49.26;99090.77;105224;1257;74421;-22
2023/07/09 07:08:22;;;;;;;2.50;1.40;;;;;;;22.12;49.17;99095.00;105224;1264;71963;-22
2023/07/09 07:10:58;;;;;;;2.10;1.40;;;;;;;22.26;50.44;99095.08;105190;1263;61138;-23
2023/07/09 07:13:26;;;;;;;2.20;1.30;;;;;;;22.39;49.02;99093.04;105145;1257;61115;-22
2023/07/09 07:15:57;;;;;;;3.00;1.60;;;;;;;22.43;48.88;99092.31;105222;1257;71860;-22
2023/07/09 07:26:03;;;;;;;2.80;1.20;;;;;;;22.86;46.86;99086.68;102722;1290;599460;-21
2023/07/09 07:28:34;;;;;;;2.50;1.30;;;;;;;22.88;47.74;99088.00;105087;1269;61071;-21
2023/07/09 07:31:09;;;;;;;8.40;1.80;;;;;;;22.95;46.90;99085.70;104856;1272;61181;-21
2023/07/09 07:33:39;;;;;;;2.20;1.40;;;;;;;23.05;46.22;99083.45;104883;1270;71773;-21
2023/07/09 07:36:07;;;;;;;2.50;1.40;;;;;;;23.05;46.46;99082.84;104896;1264;72082;-22
2023/07/09 07:38:38;;;;;;;2.60;1.40;;;;;;;23.09;45.37;99081.48;102961;1270;2541691;-21
2023/07/09 07:52:03;;;;;;;4.10;1.40;;;;;;;23.72;46.28;99078.09;102602;1292;600763;-21
2023/07/09 07:54:33;;;;;;;1.40;1.00;;;;;;;23.82;45.93;99073.14;104823;1269;61258;-21
2023/07/09 07:57:01;;;;;;;2.60;1.20;;;;;;;23.91;46.38;99070.59;105051;1266;61103;-21
2023/07/09 08:07:10;;;;;;;3.50;1.50;;;;;;;24.11;43.65;99062.13;102665;1293;600186;-21
2023/07/09 08:09:39;;;;;;;2.30;1.20;;;;;;;24.17;43.37;99068.00;105164;1268;61257;-21
2023/07/09 08:12:11;;;;;;;1.30;1.00;;;;;;;23.97;43.25;99064.94;104836;1267;61081;-22
2023/07/09 08:22:21;;;;;;;2.80;1.30;;;;;;;24.07;43.17;99062.36;102670;1292;600489;-21
2023/07/09 08:24:49;;;;;;;3.70;1.60;;;;;;;24.23;43.34;99059.20;104907;1266;61163;-21
2023/07/09 08:27:17;;;;;;;3.20;1.40;;;;;;;24.14;41.23;99057.98;104874;1267;61057;-21
2023/07/09 08:37:28;;;;;;;2.10;1.10;;;;;;;24.95;37.90;99056.16;102629;1294;600155;-21
2023/07/09 08:48:03;;;;;;;1.50;0.90;;;;;;;24.49;39.33;99054.28;102732;1289;599514;-21
2023/07/09 08:50:42;;;;;;;1.80;1.00;;;;;;;24.50;39.67;99051.44;104834;1266;61070;-22
2023/07/09 08:53:15;;;;;;;3.50;1.50;;;;;;;24.43;40.08;99057.36;104837;1266;61149;-23
2023/07/09 08:55:43;;;;;;;2.50;1.10;;;;;;;24.54;39.02;99052.05;104802;1264;72282;-22
2023/07/09 08:58:21;;;;;;;2.30;0.90;;;;;;;24.78;40.91;99052.34;104806;1266;73127;-22
2023/07/09 09:00:56;;;;;;;2.00;1.00;;;;;;;24.68;39.24;99046.17;102568;1263;3060801;-23
2023/07/09 09:03:39;;;;;;;1.80;1.00;;;;;;;24.34;39.77;99051.63;104846;1271;61212;-22
2023/07/09 09:06:21;;;;;;;2.90;1.30;;;;;;;24.42;39.50;99048.63;105134;1268;61325;-23
2023/07/09 09:16:30;;;;;;;2.00;1.20;;;;;;;25.25;39.77;99038.95;102549;1292;600297;-22
2023/07/09 09:18:59;;;;;;;2.60;1.10;;;;;;;25.03;41.13;99038.77;104686;1268;61264;-22
2023/07/09 09:29:12;;;;;;;2.50;1.10;;;;;;;25.87;39.12;99037.45;102665;1294;600270;-21
2023/07/09 09:39:24;;;;;;;1.70;1.20;;;;;;;24.55;40.56;99045.46;102758;1292;600563;-21
2023/07/09 09:41:56;;;;;;;2.60;1.20;;;;;;;24.82;41.00;99038.54;104778;1268;61108;-21
2023/07/09 09:44:26;;;;;;;1.80;1.10;;;;;;;25.19;39.71;99040.81;104664;1276;61143;-21
2023/07/09 09:46:57;;;;;;;2.50;1.20;;;;;;;25.51;40.26;99037.05;104743;1268;71017;-21
2023/07/09 09:49:27;;;;;;;5.10;1.10;;;;;;;24.92;41.39;99033.38;104734;1274;74324;-22
2023/07/09 09:59:20;;;;;;;5.40;1.20;;;;;;;25.22;42.02;99032.05;102610;1293;600863;-21
2023/07/09 10:01:48;;;;;;;2.50;1.30;;;;;;;25.27;41.20;99028.52;104853;1269;61197;-21
2023/07/09 10:04:19;;;;;;;3.10;1.20;;;;;;;25.32;40.17;99036.54;104698;1267;61100;-21
2023/07/09 10:06:52;;;;;;;1.60;1.20;;;;;;;24.90;41.38;99033.91;104917;1270;71231;-21
2023/07/09 10:09:28;;;;;;;1.40;1.20;;;;;;;24.64;42.54;99041.30;104832;1272;74522;-21
2023/07/09 10:12:30;;;;;;;5.60;1.40;;;;;;;24.22;43.05;99042.35;102839;1272;2733337;-22
2023/07/09 10:15:11;;;;;;;2.20;1.30;;;;;;;24.49;42.80;99040.19;104833;1270;61192;-21
2023/07/09 10:17:43;;;;;;;4.60;1.30;;;;;;;24.92;42.88;99035.27;105119;1263;61453;-21
2023/07/09 10:28:36;;;;;;;1.50;1.30;;;;;;;24.46;41.92;99038.38;102571;1293;600251;-21
2023/07/09 10:31:12;;;;;;;3.60;1.30;;;;;;;24.96;41.88;99038.83;104800;1272;61209;-22
2023/07/09 10:33:47;;;;;;;1.80;1.10;;;;;;;25.42;41.70;99040.90;104783;1272;61183;-21
2023/07/09 10:36:33;;;;;;;1.70;1.20;;;;;;;25.68;41.16;99038.76;104651;1267;72258;-21
2023/07/09 10:39:10;;;;;;;3.00;1.40;;;;;;;25.91;38.51;99037.02;104749;1272;74343;-21
2023/07/09 10:52:06;;;;;;;1.80;1.10;;;;;;;25.44;39.32;99035.63;102586;1293;599764;-22
2023/07/09 10:55:07;;;;;;;1.50;1.10;;;;;;;25.10;40.53;99035.09;104834;1267;61147;-22
2023/07/09 11:05:18;;;;;;;2.30;0.90;;;;;;;25.81;37.18;99036.87;102602;1293;600158;-21
2023/07/09 11:07:58;;;;;;;1.70;0.80;;;;;;;25.70;38.70;99037.59;104877;1267;61078;-21
2023/07/09 11:18:16;;;;;;;2.20;1.20;;;;;;;26.02;39.10;99028.92;102716;1294;600233;-21
2023/07/09 11:28:35;;;;;;;2.40;1.10;;;;;;;26.14;37.33;99015.25;102563;1292;600223;-21
2023/07/09 11:31:07;;;;;;;2.40;1.00;;;;;;;25.58;38.52;99020.48;104726;1266;61177;-22
2023/07/09 11:33:45;;;;;;;2.70;1.10;;;;;;;25.07;40.34;99023.73;104784;1266;61184;-23
2023/07/09 11:36:15;;;;;;;4.00;1.10;;;;;;;25.09;40.21;99016.71;104785;1275;72333;-23
2023/07/09 11:38:52;;;;;;;1.30;0.80;;;;;;;25.26;39.81;99015.86;104752;1272;73118;-22
2023/07/09 11:41:34;;;;;;;1.40;1.00;;;;;;;25.68;39.22;99012.41;102893;1272;2505411;-22
2023/07/09 11:44:08;;;;;;;2.20;1.10;;;;;;;25.60;37.65;99005.90;104832;1272;61182;-23
2023/07/09 11:46:39;;;;;;;2.30;1.20;;;;;;;25.53;39.09;99002.35;105393;1261;61112;-23
2023/07/09 11:49:07;;;;;;;2.30;1.10;;;;;;;25.15;38.90;99002.55;105183;1263;72177;-22
2023/07/09 11:51:39;;;;;;;3.30;1.40;;;;;;;25.23;40.52;99002.16;109026;1260;73310;-23
2023/07/09 11:54:08;;;;;;;1.90;1.40;;;;;;;25.44;39.69;98993.86;108954;1260;71436;-23
2023/07/09 11:56:35;;;;;;;2.30;0.90;;;;;;;25.37;40.52;98997.25;108915;1257;58955;-23
2023/07/09 11:59:03;;;;;;;2.60;1.30;;;;;;;25.14;38.87;98996.16;109056;1258;58776;-23
2023/07/09 12:01:44;;;;;;;1.70;1.10;;;;;;;25.20;40.81;98990.84;109011;1259;73089;-23
2023/07/09 12:04:16;;;;;;;4.30;2.00;;;;;;;25.61;41.60;98998.52;108923;1260;74333;-23
2023/07/09 12:06:44;;;;;;;2.70;1.10;;;;;;;25.66;38.53;98997.85;108909;1260;71382;-23
2023/07/09 12:09:19;;;;;;;1.40;1.10;;;;;;;25.77;38.11;98998.13;109017;1260;58831;-23
2023/07/09 12:11:49;;;;;;;1.90;1.00;;;;;;;25.68;39.12;98988.15;108983;1258;58810;-23
2023/07/09 12:14:19;;;;;;;3.30;1.30;;;;;;;25.41;40.22;98990.89;108931;1265;71819;-23
2023/07/09 12:16:48;;;;;;;1.70;1.20;;;;;;;25.31;39.73;98993.79;108935;1257;74555;-23
2023/07/09 12:19:18;;;;;;;2.10;1.60;;;;;;;25.21;40.06;98986.52;109015;1257;71424;-23
2023/07/09 12:21:48;;;;;;;2.50;1.30;;;;;;;25.39;40.19;98986.70;109078;1257;60099;-23
2023/07/09 12:24:26;;;;;;;4.00;1.10;;;;;;;25.59;39.10;98986.68;109033;1257;61168;-23
2023/07/09 12:27:04;;;;;;;2.00;1.10;;;;;;;25.97;39.32;98978.02;108998;1257;73043;-21
2023/07/09 12:29:35;;;;;;;2.70;1.40;;;;;;;25.86;37.16;98974.65;109001;1257;72573;-21
2023/07/09 12:32:04;;;;;;;1.30;1.20;;;;;;;25.90;38.12;98975.70;109029;1257;71413;-21
2023/07/09 12:34:31;;;;;;;4.10;1.40;;;;;;;25.79;38.15;98980.17;109009;1257;60245;-21
2023/07/09 12:36:59;;;;;;;2.20;1.40;;;;;;;25.63;38.41;98977.23;109135;1257;60012;-21
2023/07/09 12:39:28;;;;;;;2.80;1.00;;;;;;;25.77;38.79;98974.20;109090;1257;70803;-21
2023/07/09 12:41:56;;;;;;;2.90;1.20;;;;;;;25.53;38.58;98965.95;108983;1260;74553;-21
2023/07/09 12:44:24;;;;;;;3.60;1.30;;;;;;;25.37;38.78;98966.55;108953;1260;70382;-24
2023/07/09 12:46:52;;;;;;;1.90;1.20;;;;;;;25.43;39.59;98965.41;108918;1260;59546;-23
2023/07/09 12:49:25;;;;;;;4.00;1.20;;;;;;;25.35;39.07;98974.44;108944;1260;60066;-23
2023/07/09 12:51:55;;;;;;;3.00;1.10;;;;;;;25.66;39.88;98970.53;108886;1263;72853;-23
2023/07/09 12:54:23;;;;;;;2.30;1.40;;;;;;;25.94;38.41;98967.11;108952;1260;74340;-23
2023/07/09 12:56:54;;;;;;;2.30;1.20;;;;;;;26.00;38.98;98961.02;109028;1260;71418;-23
2023/07/09 12:59:26;;;;;;;1.40;1.10;;;;;;;25.82;37.91;98964.83;108914;1260;59287;-23
2023/07/09 13:02:20;;;;;;;1.50;1.10;;;;;;;26.07;36.79;98962.98;108823;1260;58844;-23
2023/07/09 13:04:48;;;;;;;3.10;1.30;;;;;;;26.18;37.26;98962.21;108994;1260;71134;-23
2023/07/09 13:07:25;;;;;;;3.30;1.20;;;;;;;25.86;37.10;98960.87;108912;1258;73039;-23
2023/07/09 13:09:54;;;;;;;2.30;1.30;;;;;;;25.89;38.39;98967.14;108992;1260;72520;-23
2023/07/09 13:12:31;;;;;;;2.90;1.20;;;;;;;25.85;37.54;98963.83;108891;1259;61488;-23
2023/07/09 13:14:58;;;;;;;2.00;1.10;;;;;;;26.00;38.00;98962.83;108940;1263;58797;-23
2023/07/09 13:17:29;;;;;;;1.70;1.30;;;;;;;26.30;37.65;98958.25;109051;1261;71802;-23
2023/07/09 13:19:57;;;;;;;1.60;1.20;;;;;;;26.41;37.97;98954.29;108927;1258;73207;-23
2023/07/09 13:22:24;;;;;;;2.20;1.30;;;;;;;26.48;37.31;98951.02;108950;1261;71419;-23
2023/07/09 13:24:52;;;;;;;3.10;1.40;;;;;;;26.40;36.47;98951.27;109025;1260;58858;-23
2023/07/09 13:27:19;;;;;;;3.70;1.30;;;;;;;26.39;36.47;98945.04;108991;1258;60065;-23
2023/07/09 13:29:47;;;;;;;1.80;1.40;;;;;;;26.10;36.90;98941.48;109074;1260;73095;-23
2023/07/09 13:32:15;;;;;;;5.60;1.20;;;;;;;25.93;36.91;98937.99;109048;1260;73093;-23
2023/07/09 13:34:43;;;;;;;2.00;1.10;;;;;;;25.68;36.99;98944.38;108981;1259;72663;-23
2023/07/09 13:37:15;;;;;;;2.60;1.30;;;;;;;25.82;37.07;98946.16;108988;1260;58853;-23
2023/07/09 13:39:42;;;;;;;1.70;1.30;;;;;;;25.90;38.02;98946.77;109005;1260;60077;-23
2023/07/09 13:42:14;;;;;;;3.70;1.50;;;;;;;25.85;37.60;98947.27;108969;1260;71759;-23
2023/07/09 13:44:42;;;;;;;3.40;1.40;;;;;;;25.91;37.37;98948.68;108788;1260;74128;-23
2023/07/09 13:47:18;;;;;;;4.50;1.40;;;;;;;25.73;36.80;98941.20;108997;1260;72650;-23
2023/07/09 13:49:46;;;;;;;2.80;1.40;;;;;;;25.54;37.91;98937.50;108946;1260;60099;-23